Stanley, North Dakota
Current Conditions -  °F | °C
As of 9:15 AM on Wednesday 22 Oct 2014 (Local Time) from K08D Reporting Station
Few Clouds Few Clouds  
Wind Chill: 41°   Ceiling: Unl
Heat Index: 46°   Visibility: 10mi
Dew Point: 46°   Wind: 13mph
Humidity: 100%   Direction: 270°W
Pressure: 29.78"   Gusts: 18mph
Location:  48.32°N, 102.39°W
Report Text: K08D 221415Z AUTO 27011G16KT 10SM FEW100 08/08 A2978 RMK AO2
Loading
Personal Weather Stations






























Interactive Weather Map
Tropical Storm Tracking
New forecast layout! Learn more

10-Day Weather Forecast

Advertisements
Track Severe Weather on mobile